createdAt,value
2023-01-29T00:00:21.967Z,3.10
2023-01-29T00:02:50.362Z,3.10
2023-01-29T00:05:27.814Z,3.10
2023-01-29T00:07:57.441Z,3.10
2023-01-29T00:10:26.912Z,3.10
2023-01-29T00:12:55.474Z,3.10
2023-01-29T00:15:25.186Z,3.10
2023-01-29T00:17:53.508Z,3.10
2023-01-29T00:20:21.846Z,3.20
2023-01-29T00:22:50.137Z,3.30
2023-01-29T00:25:18.485Z,3.20
2023-01-29T00:27:46.819Z,3.20
2023-01-29T00:30:19.825Z,3.50
2023-01-29T00:32:49.731Z,3.60
2023-01-29T00:35:18.259Z,3.80
2023-01-29T00:37:46.580Z,3.80
2023-01-29T00:40:15.645Z,3.80
2023-01-29T00:43:03.845Z,3.80
2023-01-29T00:45:33.357Z,3.90
2023-01-29T00:48:03.101Z,3.80
2023-01-29T00:50:32.633Z,3.70
2023-01-29T00:53:00.888Z,3.70
2023-01-29T00:55:29.153Z,3.60
2023-01-29T00:57:57.350Z,3.60
2023-01-29T01:00:25.962Z,3.50
2023-01-29T01:03:08.742Z,3.60
2023-01-29T01:05:39.046Z,3.50
2023-01-29T01:08:28.561Z,3.50
2023-01-29T01:11:02.639Z,3.50
2023-01-29T01:13:33.664Z,3.50
2023-01-29T01:16:02.101Z,3.40
2023-01-29T01:18:32.659Z,3.40
2023-01-29T01:21:02.325Z,3.40
2023-01-29T01:23:31.176Z,3.50
2023-01-29T01:25:59.755Z,3.60
2023-01-29T01:28:29.031Z,3.60
2023-01-29T01:30:57.376Z,3.60
2023-01-29T01:33:25.620Z,3.60
2023-01-29T01:35:53.906Z,3.60
2023-01-29T01:38:24.054Z,3.60
2023-01-29T01:40:52.363Z,3.70
2023-01-29T01:43:20.592Z,3.70
2023-01-29T01:45:49.616Z,3.60
2023-01-29T01:48:25.333Z,3.70
2023-01-29T01:51:00.575Z,3.60
2023-01-29T01:53:37.431Z,3.60
2023-01-29T01:56:11.253Z,3.70
2023-01-29T01:58:44.580Z,3.70
2023-01-29T02:01:13.595Z,3.70
2023-01-29T02:04:04.868Z,3.70
2023-01-29T02:06:52.527Z,3.70
2023-01-29T02:09:34.577Z,3.70
2023-01-29T02:12:04.074Z,3.70
2023-01-29T02:14:34.476Z,3.70
2023-01-29T02:17:03.264Z,3.70
2023-01-29T02:19:48.130Z,3.70
2023-01-29T02:22:55.049Z,3.70
2023-01-29T02:26:05.719Z,3.70
2023-01-29T02:28:45.174Z,3.70
2023-01-29T02:31:28.313Z,3.80
2023-01-29T02:34:08.973Z,3.80
2023-01-29T02:36:47.763Z,3.80
2023-01-29T02:39:24.469Z,3.80
2023-01-29T02:42:05.978Z,3.80
2023-01-29T02:44:42.344Z,3.80
2023-01-29T02:47:23.043Z,3.80
2023-01-29T02:50:04.127Z,3.80
2023-01-29T02:52:43.198Z,3.80
2023-01-29T02:55:18.254Z,3.70
2023-01-29T02:57:49.915Z,3.70
2023-01-29T03:00:25.069Z,3.80
2023-01-29T03:03:01.054Z,3.80
2023-01-29T03:05:35.911Z,3.80
2023-01-29T03:08:11.159Z,3.80
2023-01-29T03:10:49.601Z,3.80
2023-01-29T03:13:26.866Z,3.80
2023-01-29T03:16:04.394Z,3.80
2023-01-29T03:18:48.649Z,3.80
2023-01-29T03:21:43.237Z,3.80
2023-01-29T03:24:35.141Z,3.70
2023-01-29T03:27:27.245Z,3.70
2023-01-29T03:30:17.838Z,3.70
2023-01-29T03:32:53.565Z,3.70
2023-01-29T03:35:36.635Z,3.80
2023-01-29T03:38:09.978Z,3.80
2023-01-29T03:40:47.030Z,3.80
2023-01-29T03:43:32.970Z,3.80
2023-01-29T03:46:11.748Z,3.70
2023-01-29T03:48:51.833Z,3.70
2023-01-29T03:51:29.505Z,3.70
2023-01-29T03:54:11.901Z,3.70
2023-01-29T03:56:58.675Z,3.70
2023-01-29T03:59:40.507Z,3.70
2023-01-29T04:02:36.117Z,3.70
2023-01-29T04:05:19.817Z,3.60
2023-01-29T04:08:27.303Z,3.70
2023-01-29T04:11:02.813Z,3.70
2023-01-29T04:13:34.641Z,3.70
2023-01-29T04:16:08.948Z,3.70
2023-01-29T04:18:58.068Z,3.60
2023-01-29T04:21:33.065Z,3.60
2023-01-29T04:24:01.780Z,3.60
2023-01-29T04:27:00.995Z,3.50
2023-01-29T04:29:46.604Z,3.60
2023-01-29T04:32:27.308Z,3.50
2023-01-29T04:35:05.804Z,3.50
2023-01-29T04:37:42.973Z,3.50
2023-01-29T04:40:22.121Z,3.50
2023-01-29T04:42:58.605Z,3.50
2023-01-29T04:45:40.922Z,3.50
2023-01-29T04:48:22.202Z,3.50
2023-01-29T04:51:02.025Z,3.60
2023-01-29T04:53:50.219Z,3.60
2023-01-29T04:56:27.356Z,3.50
2023-01-29T04:59:03.974Z,3.50
2023-01-29T05:01:34.891Z,3.60
2023-01-29T05:04:08.974Z,3.60
2023-01-29T05:06:38.840Z,3.50
2023-01-29T05:09:10.373Z,3.50
2023-01-29T05:11:38.844Z,3.60
2023-01-29T05:14:12.753Z,3.50
2023-01-29T05:16:46.404Z,3.50
2023-01-29T05:19:17.698Z,3.50
2023-01-29T05:21:49.743Z,3.50
2023-01-29T05:24:22.840Z,3.50
2023-01-29T05:27:11.321Z,3.50
2023-01-29T05:29:44.169Z,3.40
2023-01-29T05:32:12.793Z,3.50
2023-01-29T05:34:41.106Z,3.40
2023-01-29T05:37:11.247Z,3.40
2023-01-29T05:39:40.791Z,3.50
2023-01-29T05:42:09.120Z,3.40
2023-01-29T05:44:37.357Z,3.40
2023-01-29T05:47:05.872Z,3.50
2023-01-29T05:49:34.283Z,3.60
2023-01-29T05:52:02.798Z,3.60
2023-01-29T05:54:31.123Z,3.60
2023-01-29T05:57:00.758Z,3.60
2023-01-29T05:59:31.117Z,3.60
2023-01-29T06:01:59.484Z,3.60
2023-01-29T06:04:27.756Z,3.70
2023-01-29T06:06:55.998Z,3.70
2023-01-29T06:09:24.311Z,3.70
2023-01-29T06:11:52.564Z,3.70
2023-01-29T06:14:22.232Z,3.60
2023-01-29T06:16:50.561Z,3.60
2023-01-29T06:19:20.620Z,3.50
2023-01-29T06:21:48.969Z,3.50
2023-01-29T06:24:17.385Z,3.50
2023-01-29T06:26:45.741Z,3.50
2023-01-29T06:29:14.143Z,3.50
2023-01-29T06:31:43.881Z,3.60
2023-01-29T06:34:12.268Z,3.50
2023-01-29T06:36:41.764Z,3.50
2023-01-29T06:39:10.293Z,3.50
2023-01-29T06:41:38.543Z,3.50
2023-01-29T06:44:07.104Z,3.40
2023-01-29T06:46:35.459Z,3.50
2023-01-29T06:49:05.295Z,3.40
2023-01-29T06:51:33.722Z,3.40
2023-01-29T06:54:02.787Z,3.40
2023-01-29T06:56:31.077Z,3.40
2023-01-29T06:58:59.336Z,3.50
2023-01-29T07:01:35.985Z,3.40
2023-01-29T07:04:06.545Z,3.40
2023-01-29T07:06:35.900Z,3.50
2023-01-29T07:09:04.948Z,3.40
2023-01-29T07:11:35.169Z,3.30
2023-01-29T07:14:03.554Z,3.40
2023-01-29T07:16:32.058Z,3.40
2023-01-29T07:19:00.388Z,3.40
2023-01-29T07:21:30.342Z,3.40
2023-01-29T07:23:59.342Z,3.30
2023-01-29T07:26:27.753Z,3.30
2023-01-29T07:28:56.205Z,3.30
2023-01-29T07:31:24.892Z,3.20
2023-01-29T07:33:53.623Z,3.20
2023-01-29T07:36:24.047Z,3.20
2023-01-29T07:38:53.891Z,3.10
2023-01-29T07:41:22.794Z,3.10
2023-01-29T07:43:51.168Z,3.10
2023-01-29T07:46:19.645Z,3.10
2023-01-29T07:48:48.094Z,3.10
2023-01-29T07:51:18.202Z,3.10
2023-01-29T07:53:47.135Z,3.10
2023-01-29T07:56:16.820Z,3.10
2023-01-29T07:58:45.280Z,3.00
2023-01-29T08:01:13.776Z,3.00
2023-01-29T08:03:42.332Z,3.00
2023-01-29T08:06:11.566Z,3.00
2023-01-29T08:08:39.860Z,2.90
2023-01-29T08:11:08.567Z,2.90
2023-01-29T08:13:38.217Z,2.90
2023-01-29T08:16:07.837Z,2.90
2023-01-29T08:18:38.167Z,2.90
2023-01-29T08:21:06.844Z,2.90
2023-01-29T08:23:35.317Z,3.00
2023-01-29T08:26:04.468Z,3.00
2023-01-29T08:28:33.138Z,3.00
2023-01-29T08:31:03.002Z,3.00
2023-01-29T08:33:39.170Z,3.10
2023-01-29T08:36:09.969Z,3.10
2023-01-29T08:38:38.379Z,3.10
2023-01-29T08:41:07.714Z,3.20
2023-01-29T08:43:38.499Z,3.20
2023-01-29T08:46:09.199Z,3.20
2023-01-29T08:48:37.787Z,3.20
2023-01-29T08:51:06.660Z,3.20
2023-01-29T08:53:35.228Z,3.10
2023-01-29T08:56:03.815Z,3.20
2023-01-29T08:58:32.345Z,3.20
2023-01-29T09:01:09.875Z,3.20
2023-01-29T09:03:40.940Z,3.20
2023-01-29T09:06:12.077Z,3.30
2023-01-29T09:08:40.995Z,3.30
2023-01-29T09:11:09.315Z,3.30
2023-01-29T09:13:37.778Z,3.30
2023-01-29T09:16:08.671Z,3.30
2023-01-29T09:18:37.308Z,3.40
2023-01-29T09:21:06.462Z,3.40
2023-01-29T09:23:35.273Z,3.50
2023-01-29T09:26:03.751Z,3.50
2023-01-29T09:28:32.020Z,3.50
2023-01-29T09:31:03.441Z,3.60
2023-01-29T09:33:33.536Z,3.70
2023-01-29T09:36:04.427Z,3.80
2023-01-29T09:38:32.779Z,3.90
2023-01-29T09:41:16.734Z,4.00
2023-01-29T09:43:51.715Z,4.10
2023-01-29T09:46:29.044Z,4.20
2023-01-29T09:49:07.678Z,4.30
2023-01-29T09:51:42.655Z,4.40
2023-01-29T09:54:22.684Z,4.50
2023-01-29T09:56:56.018Z,4.50
2023-01-29T09:59:30.561Z,4.50
2023-01-29T10:02:11.575Z,4.50
2023-01-29T10:05:23.710Z,4.50
2023-01-29T10:08:41.707Z,4.50
2023-01-29T10:11:27.136Z,4.40
2023-01-29T10:14:12.786Z,4.30
2023-01-29T10:17:05.635Z,4.30
2023-01-29T10:20:04.189Z,4.20
2023-01-29T10:22:54.662Z,4.20
2023-01-29T10:25:24.584Z,4.10
2023-01-29T10:27:57.366Z,4.10
2023-01-29T10:30:34.170Z,4.00
2023-01-29T10:33:06.523Z,4.10
2023-01-29T10:35:41.884Z,4.00
2023-01-29T10:38:38.402Z,4.00
2023-01-29T10:41:34.859Z,4.00
2023-01-29T10:44:21.174Z,3.90
2023-01-29T10:47:13.301Z,4.00
2023-01-29T10:50:09.969Z,4.00
2023-01-29T10:52:59.374Z,4.00
2023-01-29T10:55:47.726Z,4.00
2023-01-29T10:58:30.922Z,3.90
2023-01-29T11:01:00.387Z,4.00
2023-01-29T11:03:31.895Z,4.00
2023-01-29T11:06:13.791Z,4.00
2023-01-29T11:08:50.722Z,4.00
2023-01-29T11:11:22.260Z,4.00
2023-01-29T11:13:59.589Z,4.10
2023-01-29T11:16:33.213Z,4.10
2023-01-29T11:19:03.024Z,4.10
2023-01-29T11:21:31.323Z,4.10
2023-01-29T11:24:17.349Z,4.00
2023-01-29T11:26:49.428Z,4.00
2023-01-29T11:29:41.170Z,4.00
2023-01-29T11:32:15.901Z,4.00
2023-01-29T11:35:02.643Z,4.00
2023-01-29T11:37:38.005Z,4.00
2023-01-29T11:40:41.941Z,4.10
2023-01-29T11:43:30.027Z,4.10
2023-01-29T11:46:05.001Z,4.10
2023-01-29T11:48:59.305Z,4.20
2023-01-29T11:51:36.037Z,4.20
2023-01-29T11:54:06.900Z,4.20
2023-01-29T11:56:43.572Z,4.20
2023-01-29T11:59:35.002Z,4.30
2023-01-29T12:02:19.778Z,4.30
2023-01-29T12:04:49.448Z,4.40
2023-01-29T12:07:19.997Z,4.40
2023-01-29T12:09:55.650Z,4.40
2023-01-29T12:12:41.672Z,4.50
2023-01-29T12:15:28.060Z,4.50
2023-01-29T12:18:07.689Z,4.40
2023-01-29T12:20:43.862Z,4.40
2023-01-29T12:23:41.970Z,4.40
2023-01-29T12:26:15.962Z,4.40
2023-01-29T12:28:56.193Z,4.30
2023-01-29T12:31:36.155Z,4.30
2023-01-29T12:34:16.822Z,4.40
2023-01-29T12:36:53.737Z,4.40
2023-01-29T12:39:22.763Z,4.30
2023-01-29T12:41:58.981Z,4.40
2023-01-29T12:44:42.059Z,4.40
2023-01-29T12:47:22.057Z,4.40
2023-01-29T12:49:57.060Z,4.40
2023-01-29T12:52:40.592Z,4.40
2023-01-29T12:55:18.322Z,4.30
2023-01-29T12:57:54.874Z,4.40
2023-01-29T13:00:29.338Z,4.30
2023-01-29T13:03:08.350Z,4.40
2023-01-29T13:05:46.929Z,4.30
2023-01-29T13:08:22.057Z,4.40
2023-01-29T13:10:53.913Z,4.40
2023-01-29T13:13:31.570Z,4.40
2023-01-29T13:16:06.807Z,4.40
2023-01-29T13:18:44.251Z,4.30
2023-01-29T13:21:19.095Z,4.30
2023-01-29T13:23:52.346Z,4.40
2023-01-29T13:26:22.159Z,4.30
2023-01-29T13:28:52.725Z,4.30
2023-01-29T13:31:31.634Z,4.30
2023-01-29T13:34:15.371Z,4.30
2023-01-29T13:36:46.863Z,4.30
2023-01-29T13:39:26.583Z,4.30
2023-01-29T13:41:57.047Z,4.30
2023-01-29T13:44:30.571Z,4.40
2023-01-29T13:47:03.640Z,4.40
2023-01-29T13:49:38.417Z,4.40
2023-01-29T13:52:23.351Z,4.40
2023-01-29T13:54:58.409Z,4.40
2023-01-29T13:57:56.293Z,4.40
2023-01-29T14:00:54.813Z,4.50
2023-01-29T14:04:05.008Z,4.50
2023-01-29T14:06:45.198Z,4.40
2023-01-29T14:11:36.811Z,4.40
2023-01-29T14:15:02.424Z,4.40
2023-01-29T14:17:31.392Z,4.30
2023-01-29T14:20:17.411Z,4.30
2023-01-29T14:22:54.948Z,4.40
2023-01-29T14:25:31.033Z,4.40
2023-01-29T14:28:04.384Z,4.40
2023-01-29T14:30:36.341Z,4.40
2023-01-29T14:33:06.967Z,4.40
2023-01-29T14:35:35.638Z,4.40
2023-01-29T14:38:09.435Z,4.40
2023-01-29T14:40:37.824Z,4.40
2023-01-29T14:43:10.150Z,4.40
2023-01-29T14:45:41.737Z,4.40
2023-01-29T14:48:39.478Z,4.40
2023-01-29T14:51:13.241Z,4.40
2023-01-29T14:53:59.747Z,4.40
2023-01-29T14:56:35.747Z,4.40
2023-01-29T14:59:20.910Z,4.40
2023-01-29T15:01:55.999Z,4.50
2023-01-29T15:04:29.206Z,4.40
2023-01-29T15:07:04.222Z,4.40
2023-01-29T15:09:43.401Z,4.40
2023-01-29T15:12:22.766Z,4.40
2023-01-29T15:15:05.999Z,4.40
2023-01-29T15:17:43.767Z,4.40
2023-01-29T15:20:31.623Z,4.30
2023-01-29T15:23:00.810Z,4.30
2023-01-29T15:25:36.119Z,4.30
2023-01-29T15:28:08.507Z,4.30
2023-01-29T15:30:43.225Z,4.30
2023-01-29T15:33:15.399Z,4.20
2023-01-29T15:35:44.179Z,4.20
2023-01-29T15:38:18.714Z,4.30
2023-01-29T15:40:54.562Z,4.30
2023-01-29T15:43:25.369Z,4.30
2023-01-29T15:46:01.060Z,4.20
2023-01-29T15:48:37.139Z,4.20
2023-01-29T15:51:09.177Z,4.30
2023-01-29T15:53:44.037Z,4.20
2023-01-29T15:56:13.830Z,4.30
2023-01-29T15:58:43.681Z,4.30
2023-01-29T16:01:14.464Z,4.20
2023-01-29T16:03:44.205Z,4.30
2023-01-29T16:06:13.243Z,4.30
2023-01-29T16:08:46.898Z,4.20
2023-01-29T16:11:19.587Z,4.30
2023-01-29T16:13:51.856Z,4.30
2023-01-29T16:16:28.472Z,4.20
2023-01-29T16:19:00.719Z,4.20
2023-01-29T16:21:35.489Z,4.20
2023-01-29T16:24:10.078Z,4.10
2023-01-29T16:26:49.336Z,4.10
2023-01-29T16:29:21.680Z,4.10
2023-01-29T16:32:00.397Z,4.10
2023-01-29T16:34:33.672Z,4.10
2023-01-29T16:37:05.771Z,4.00
2023-01-29T16:39:38.109Z,4.10
2023-01-29T16:42:30.517Z,4.00
2023-01-29T16:45:03.519Z,4.00
2023-01-29T16:47:37.298Z,4.00
2023-01-29T16:50:36.013Z,4.00
2023-01-29T16:53:18.980Z,3.90
2023-01-29T16:55:49.919Z,3.90
2023-01-29T16:58:22.711Z,3.80
2023-01-29T17:00:57.087Z,3.80
2023-01-29T17:03:29.272Z,3.80
2023-01-29T17:05:58.292Z,3.90
2023-01-29T17:08:31.893Z,3.80
2023-01-29T17:11:01.266Z,3.90
2023-01-29T17:13:36.110Z,3.80
2023-01-29T17:16:16.815Z,3.80
2023-01-29T17:18:46.360Z,3.80
2023-01-29T17:21:14.682Z,3.80
2023-01-29T17:23:43.152Z,3.80
2023-01-29T17:26:15.285Z,3.80
2023-01-29T17:28:44.073Z,3.80
2023-01-29T17:31:12.440Z,3.80
2023-01-29T17:33:44.654Z,3.80
2023-01-29T17:36:17.957Z,3.80
2023-01-29T17:38:46.830Z,3.80
2023-01-29T17:41:23.378Z,3.80
2023-01-29T17:43:52.683Z,3.80
2023-01-29T17:46:21.775Z,3.70
2023-01-29T17:48:50.274Z,3.90
2023-01-29T17:51:20.606Z,4.00
2023-01-29T17:53:48.813Z,3.90
2023-01-29T17:56:22.330Z,3.80
2023-01-29T17:58:50.667Z,3.80
2023-01-29T18:01:18.924Z,3.70
2023-01-29T18:03:47.509Z,3.60
2023-01-29T18:06:30.697Z,3.60
2023-01-29T18:08:59.357Z,3.60
2023-01-29T18:11:28.247Z,3.50
2023-01-29T18:13:57.230Z,3.50
2023-01-29T18:16:26.804Z,3.60
2023-01-29T18:18:55.227Z,3.50
2023-01-29T18:21:24.943Z,3.40
2023-01-29T18:23:53.272Z,3.50
2023-01-29T18:26:22.697Z,3.50
2023-01-29T18:28:51.429Z,3.50
2023-01-29T18:31:19.952Z,3.60
2023-01-29T18:33:48.885Z,3.50
2023-01-29T18:36:17.286Z,3.50
2023-01-29T18:38:47.029Z,3.50
2023-01-29T18:41:15.546Z,3.50
2023-01-29T18:43:44.505Z,3.50
2023-01-29T18:46:12.859Z,3.60
2023-01-29T18:48:42.753Z,3.60
2023-01-29T18:51:11.620Z,3.60
2023-01-29T18:53:39.881Z,3.60
2023-01-29T18:56:11.000Z,3.60
2023-01-29T18:58:40.062Z,3.50
2023-01-29T19:01:11.801Z,3.50
2023-01-29T19:03:41.534Z,3.50
2023-01-29T19:06:12.945Z,3.50
2023-01-29T19:08:43.001Z,3.50
2023-01-29T19:11:12.988Z,3.50
2023-01-29T19:13:42.843Z,3.50
2023-01-29T19:16:12.627Z,3.50
2023-01-29T19:18:41.179Z,3.50
2023-01-29T19:21:11.807Z,3.50
2023-01-29T19:23:40.386Z,3.50
2023-01-29T19:26:09.072Z,3.50
2023-01-29T19:28:39.055Z,3.50
2023-01-29T19:31:08.053Z,3.50
2023-01-29T19:33:37.430Z,3.50
2023-01-29T19:36:07.204Z,3.50
2023-01-29T19:38:38.476Z,3.50
2023-01-29T19:41:08.056Z,3.50
2023-01-29T19:43:40.679Z,3.50
2023-01-29T19:46:10.291Z,3.50
2023-01-29T19:48:38.797Z,3.50
2023-01-29T19:51:09.683Z,3.50
2023-01-29T19:53:39.534Z,3.50
2023-01-29T19:56:10.415Z,3.50
2023-01-29T19:58:40.875Z,3.50
2023-01-29T20:01:17.133Z,3.60
2023-01-29T20:03:47.580Z,3.60
2023-01-29T20:06:19.345Z,3.60
2023-01-29T20:08:47.793Z,3.60
2023-01-29T20:11:18.508Z,3.50
2023-01-29T20:13:51.168Z,3.50
2023-01-29T20:16:20.900Z,3.50
2023-01-29T20:18:49.511Z,3.50
2023-01-29T20:21:22.094Z,3.50
2023-01-29T20:23:51.941Z,3.60
2023-01-29T20:26:21.770Z,3.60
2023-01-29T20:28:53.684Z,3.60
2023-01-29T20:31:22.095Z,3.50
2023-01-29T20:33:51.218Z,3.60
2023-01-29T20:36:19.687Z,3.60
2023-01-29T20:38:48.038Z,3.60
2023-01-29T20:41:18.426Z,3.60
2023-01-29T20:43:50.089Z,3.60
2023-01-29T20:46:19.907Z,3.60
2023-01-29T20:48:49.367Z,3.60
2023-01-29T20:51:18.625Z,3.60
2023-01-29T20:53:48.908Z,3.60
2023-01-29T20:56:18.446Z,3.60
2023-01-29T20:59:00.393Z,3.60
2023-01-29T21:01:30.350Z,3.60
2023-01-29T21:03:58.820Z,3.60
2023-01-29T21:06:29.386Z,3.60
2023-01-29T21:08:58.637Z,3.70
2023-01-29T21:11:28.465Z,3.60
2023-01-29T21:13:57.902Z,3.70
2023-01-29T21:16:26.962Z,3.70
2023-01-29T21:18:58.594Z,3.70
2023-01-29T21:21:26.993Z,3.70
2023-01-29T21:23:55.730Z,3.80
2023-01-29T21:26:24.211Z,3.80
2023-01-29T21:28:52.964Z,3.80
2023-01-29T21:31:21.802Z,3.80
2023-01-29T21:33:50.213Z,3.80
2023-01-29T21:36:19.872Z,3.90
2023-01-29T21:38:48.333Z,3.80
2023-01-29T21:41:16.692Z,3.80
2023-01-29T21:43:45.335Z,3.90
2023-01-29T21:46:13.802Z,3.80
2023-01-29T21:48:42.244Z,3.80
2023-01-29T21:51:10.565Z,3.90
2023-01-29T21:53:40.221Z,3.90
2023-01-29T21:56:08.872Z,3.80
2023-01-29T21:58:37.213Z,3.90
2023-01-29T22:01:35.148Z,4.00
2023-01-29T22:03:55.684Z,4.00
2023-01-29T22:06:24.441Z,4.00
2023-01-29T22:08:54.167Z,4.00
2023-01-29T22:11:22.539Z,4.00
2023-01-29T22:13:50.799Z,4.00
2023-01-29T22:16:19.112Z,4.10
2023-01-29T22:18:47.768Z,4.10
2023-01-29T22:21:16.210Z,4.00
2023-01-29T22:23:45.154Z,4.00
2023-01-29T22:26:15.038Z,4.20
2023-01-29T22:28:43.592Z,4.20
2023-01-29T22:31:12.512Z,4.20
2023-01-29T22:33:40.802Z,4.20
2023-01-29T22:36:10.249Z,4.20
2023-01-29T22:38:38.601Z,4.10
2023-01-29T22:41:06.899Z,4.10
2023-01-29T22:43:36.518Z,4.10
2023-01-29T22:46:08.925Z,4.10
2023-01-29T22:48:37.526Z,4.10
2023-01-29T22:51:13.832Z,4.10
2023-01-29T22:53:44.606Z,4.10
2023-01-29T22:56:14.422Z,4.10
2023-01-29T22:58:44.375Z,4.00
2023-01-29T23:01:12.835Z,4.00
2023-01-29T23:03:41.366Z,4.10
2023-01-29T23:06:10.048Z,4.10
2023-01-29T23:08:38.342Z,4.10
2023-01-29T23:11:15.029Z,4.10
2023-01-29T23:13:47.063Z,4.10
2023-01-29T23:16:18.114Z,4.10
2023-01-29T23:18:50.864Z,4.10
2023-01-29T23:21:21.036Z,4.00
2023-01-29T23:23:52.290Z,4.10
2023-01-29T23:26:38.503Z,4.10
2023-01-29T23:29:08.400Z,4.00
2023-01-29T23:31:36.818Z,4.10
2023-01-29T23:34:05.171Z,4.00
2023-01-29T23:36:33.476Z,4.00
2023-01-29T23:39:01.877Z,4.00
2023-01-29T23:41:30.381Z,4.10
2023-01-29T23:43:58.711Z,4.10
2023-01-29T23:46:29.873Z,4.10
2023-01-29T23:48:58.312Z,4.10
2023-01-29T23:51:26.996Z,4.10
2023-01-29T23:53:55.411Z,4.10
2023-01-29T23:56:23.873Z,4.20
2023-01-29T23:58:55.549Z,4.20
